Time;durP1;ratioP1;P1;durP2;ratioP2;P2;SDS_P1;SDS_P2;PMS_P1;PMS_P2;Temp;Humidity;BMP_temperature;BMP_pressure;BME280_temperature;BME280_humidity;BME280_pressure;Samples;Min_cycle;Max_cycle;Signal;HPM_P1;HPM_P2
2022/06/02 00:01:15;;;;;;;14.63;5.05;;;;;;;;;;5051474;28;20025;-69
2022/06/02 00:03:46;;;;;;;10.82;4.97;;;;;;;;;;5050846;28;20083;-68
2022/06/02 00:06:23;;;;;;;10.63;4.60;;;;;;;;;;5051247;28;20052;-69
2022/06/02 00:08:51;;;;;;;13.98;4.82;;;;;;;;;;5050742;28;20029;-70
2022/06/02 00:11:37;;;;;;;13.40;5.13;;;;;;;;;;5051018;28;20021;-69
2022/06/02 00:14:21;;;;;;;11.85;4.95;;;;;;;;;;5050798;28;20385;-68
2022/06/02 00:17:16;;;;;;;16.15;4.85;;;;;;;;;;5050734;28;20071;-68
2022/06/02 00:19:50;;;;;;;15.10;4.97;;;;;;;;;;5035103;28;20041;-69
2022/06/02 00:22:29;;;;;;;10.40;4.70;;;;;;;;;;5050426;28;20118;-67
2022/06/02 00:25:10;;;;;;;11.55;5.10;;;;;;;;;;5050942;28;20025;-69
2022/06/02 00:27:55;;;;;;;11.68;4.60;;;;;;;;;;5050306;28;20110;-69
2022/06/02 00:30:29;;;;;;;7.65;4.28;;;;;;;;;;5050673;28;20029;-69
2022/06/02 00:32:54;;;;;;;11.75;4.65;;;;;;;;;;5048994;28;20491;-69
2022/06/02 00:35:44;;;;;;;10.43;4.57;;;;;;;;;;5050296;28;20057;-66
2022/06/02 00:38:23;;;;;;;14.07;4.72;;;;;;;;;;5050078;28;20041;-67
2022/06/02 00:40:49;;;;;;;14.30;4.75;;;;;;;;;;5050263;28;20031;-67
2022/06/02 00:43:23;;;;;;;13.43;4.85;;;;;;;;;;5049731;28;20412;-66
2022/06/02 00:46:13;;;;;;;12.82;4.45;;;;;;;;;;5049384;28;20025;-67
2022/06/02 00:48:56;;;;;;;8.93;4.23;;;;;;;;;;5050326;28;20051;-72
2022/06/02 00:51:42;;;;;;;10.10;4.13;;;;;;;;;;5049865;28;20043;-73
2022/06/02 00:57:30;;;;;;;14.02;4.63;;;;;;;;;;5050542;28;20123;-73
2022/06/02 01:00:19;;;;;;;10.73;4.00;;;;;;;;;;5050054;28;20025;-71
2022/06/02 01:03:05;;;;;;;15.68;4.95;;;;;;;;;;5050105;28;20040;-73
2022/06/02 01:05:58;;;;;;;10.32;4.78;;;;;;;;;;5049959;28;20104;-71
2022/06/02 01:08:33;;;;;;;10.02;3.95;;;;;;;;;;5037364;28;20040;-72
2022/06/02 01:11:01;;;;;;;10.27;4.18;;;;;;;;;;5050386;28;20029;-73
2022/06/02 01:13:40;;;;;;;9.95;4.20;;;;;;;;;;5049887;28;20064;-70
2022/06/02 01:16:08;;;;;;;9.85;4.15;;;;;;;;;;5049786;28;20485;-73
2022/06/02 01:18:36;;;;;;;13.52;4.75;;;;;;;;;;5049612;28;20033;-72
2022/06/02 01:21:23;;;;;;;13.35;4.63;;;;;;;;;;5049289;28;20029;-73
2022/06/02 01:23:54;;;;;;;10.63;4.38;;;;;;;;;;5050151;28;20052;-74
2022/06/02 01:26:40;;;;;;;10.13;4.53;;;;;;;;;;5049571;28;20025;-71
2022/06/02 01:29:28;;;;;;;13.65;4.38;;;;;;;;;;5049412;28;20072;-71
2022/06/02 01:33:01;;;;;;;9.07;4.28;;;;;;;;;;5028229;28;20540;-72
2022/06/02 01:35:56;;;;;;;12.27;4.18;;;;;;;;;;4986040;28;20042;-73
2022/06/02 01:38:27;;;;;;;10.88;4.30;;;;;;;;;;5049275;28;20037;-73
2022/06/02 01:41:30;;;;;;;10.32;4.28;;;;;;;;;;5049826;28;20033;-73
2022/06/02 01:44:18;;;;;;;10.93;4.20;;;;;;;;;;5049466;28;20028;-73
2022/06/02 01:47:06;;;;;;;11.07;4.00;;;;;;;;;;5049451;28;20388;-74
2022/06/02 01:49:42;;;;;;;11.40;3.90;;;;;;;;;;5049205;28;20259;-72
2022/06/02 01:52:23;;;;;;;11.68;3.95;;;;;;;;;;5049186;28;20061;-72
2022/06/02 01:55:16;;;;;;;12.70;4.25;;;;;;;;;;5050400;28;20045;-73
2022/06/02 01:58:08;;;;;;;13.07;4.28;;;;;;;;;;5053423;28;20029;-73
2022/06/02 02:00:34;;;;;;;11.15;4.40;;;;;;;;;;5047455;28;20068;-72
2022/06/02 02:03:21;;;;;;;10.50;3.83;;;;;;;;;;5053226;28;20481;-71
2022/06/02 02:05:46;;;;;;;15.75;4.70;;;;;;;;;;5053148;28;20029;-71
2022/06/02 02:08:19;;;;;;;12.00;4.07;;;;;;;;;;5052696;28;20036;-73
2022/06/02 02:11:06;;;;;;;10.70;4.20;;;;;;;;;;5053107;28;20041;-71
2022/06/02 02:14:02;;;;;;;11.55;4.40;;;;;;;;;;5053269;28;20396;-72
2022/06/02 02:16:49;;;;;;;12.30;4.15;;;;;;;;;;5053159;28;20025;-72
2022/06/02 02:19:36;;;;;;;11.13;4.85;;;;;;;;;;5052480;28;20100;-72
2022/06/02 02:22:08;;;;;;;12.88;4.60;;;;;;;;;;5052584;28;20465;-72
2022/06/02 02:24:54;;;;;;;10.73;4.85;;;;;;;;;;5052698;28;20621;-72
2022/06/02 02:27:26;;;;;;;10.90;4.63;;;;;;;;;;5020881;28;20048;-73
2022/06/02 02:29:54;;;;;;;11.45;4.97;;;;;;;;;;5052774;28;20035;-72
2022/06/02 02:32:33;;;;;;;13.73;5.03;;;;;;;;;;5052959;28;20048;-71
2022/06/02 02:35:20;;;;;;;8.90;4.65;;;;;;;;;;5052855;28;20104;-73
2022/06/02 02:37:54;;;;;;;10.50;5.00;;;;;;;;;;5052536;28;20063;-72
2022/06/02 02:40:24;;;;;;;12.55;5.05;;;;;;;;;;5052905;28;20539;-73
2022/06/02 02:43:10;;;;;;;10.50;5.25;;;;;;;;;;5052409;28;20025;-71
2022/06/02 02:45:46;;;;;;;11.07;4.72;;;;;;;;;;5052804;28;20071;-74
2022/06/02 02:48:23;;;;;;;14.30;5.20;;;;;;;;;;5052272;28;20029;-73
2022/06/02 02:51:17;;;;;;;11.80;4.75;;;;;;;;;;5052547;28;20170;-73
2022/06/02 02:54:05;;;;;;;12.32;5.00;;;;;;;;;;5033573;28;20037;-73
2022/06/02 02:56:43;;;;;;;9.90;4.68;;;;;;;;;;5052255;28;20047;-72
2022/06/02 02:59:23;;;;;;;11.57;4.85;;;;;;;;;;5050703;28;20033;-71
2022/06/02 03:01:57;;;;;;;12.73;4.97;;;;;;;;;;5052160;28;20481;-74
2022/06/02 03:04:55;;;;;;;15.02;5.32;;;;;;;;;;5052169;28;20029;-73
2022/06/02 03:07:21;;;;;;;12.10;5.07;;;;;;;;;;5047368;28;20170;-74
2022/06/02 03:10:04;;;;;;;13.68;5.10;;;;;;;;;;5051963;28;20127;-75
2022/06/02 03:12:34;;;;;;;12.52;5.47;;;;;;;;;;5052266;28;20029;-74
2022/06/02 03:15:02;;;;;;;13.95;5.32;;;;;;;;;;5051866;28;20112;-72
2022/06/02 03:17:42;;;;;;;13.95;5.07;;;;;;;;;;5052016;28;20029;-73
2022/06/02 03:20:22;;;;;;;13.43;5.18;;;;;;;;;;5051634;28;20029;-73
2022/06/02 03:22:59;;;;;;;15.20;5.13;;;;;;;;;;5051501;28;20048;-74
2022/06/02 03:25:38;;;;;;;15.20;5.32;;;;;;;;;;5051809;28;20053;-70
2022/06/02 03:28:15;;;;;;;10.40;4.75;;;;;;;;;;5051651;28;20074;-69
2022/06/02 03:31:04;;;;;;;14.15;4.82;;;;;;;;;;5051302;28;20371;-72
2022/06/02 03:34:07;;;;;;;11.05;4.97;;;;;;;;;;5051398;28;20033;-68
2022/06/02 03:37:10;;;;;;;11.38;5.00;;;;;;;;;;5009108;28;20029;-70
2022/06/02 03:39:39;;;;;;;9.50;4.57;;;;;;;;;;4979819;28;20080;-69
2022/06/02 03:42:25;;;;;;;10.65;4.78;;;;;;;;;;5039991;28;20037;-68
2022/06/02 03:45:15;;;;;;;12.30;5.00;;;;;;;;;;5051376;28;20025;-67
2022/06/02 03:47:53;;;;;;;12.98;5.10;;;;;;;;;;5051381;28;20052;-68
2022/06/02 03:50:33;;;;;;;13.07;4.90;;;;;;;;;;5051112;28;20074;-67
2022/06/02 03:53:08;;;;;;;13.10;4.97;;;;;;;;;;5050934;28;20025;-67
2022/06/02 03:56:01;;;;;;;18.15;5.07;;;;;;;;;;5051035;28;20055;-67
2022/06/02 03:58:39;;;;;;;11.15;4.85;;;;;;;;;;5051082;28;20083;-70
2022/06/02 04:01:08;;;;;;;11.93;5.15;;;;;;;;;;5051137;28;20119;-72
2022/06/02 04:03:58;;;;;;;12.73;4.90;;;;;;;;;;5051223;28;20051;-68
2022/06/02 04:06:40;;;;;;;11.23;4.63;;;;;;;;;;5050748;28;20064;-68
2022/06/02 04:09:31;;;;;;;11.63;5.07;;;;;;;;;;5050330;28;20037;-69
2022/06/02 04:15:32;;;;;;;14.25;5.22;;;;;;;;;;5050898;28;20047;-66
2022/06/02 04:18:02;;;;;;;9.98;4.95;;;;;;;;;;5050438;28;20056;-67
2022/06/02 04:20:44;;;;;;;13.05;4.97;;;;;;;;;;5049072;28;20023;-67
2022/06/02 04:23:47;;;;;;;14.93;5.25;;;;;;;;;;5050597;28;20052;-68
2022/06/02 04:26:23;;;;;;;15.80;5.13;;;;;;;;;;5050733;28;20027;-70
2022/06/02 04:29:22;;;;;;;14.55;5.18;;;;;;;;;;5050406;28;20112;-71
2022/06/02 04:32:25;;;;;;;12.90;5.05;;;;;;;;;;5036441;28;20061;-69
2022/06/02 04:35:15;;;;;;;10.85;5.05;;;;;;;;;;5050453;28;20103;-72
2022/06/02 04:38:02;;;;;;;16.08;5.32;;;;;;;;;;5050474;28;20067;-73
2022/06/02 04:40:50;;;;;;;11.65;5.22;;;;;;;;;;5050096;28;20056;-72
2022/06/02 04:43:40;;;;;;;10.98;4.70;;;;;;;;;;5044261;28;20037;-73
2022/06/02 04:46:11;;;;;;;12.15;5.20;;;;;;;;;;5049921;28;20029;-73
2022/06/02 04:48:45;;;;;;;15.25;4.90;;;;;;;;;;5050125;28;20025;-74
2022/06/02 04:51:20;;;;;;;15.70;5.13;;;;;;;;;;5049868;28;20028;-73
2022/06/02 04:54:13;;;;;;;14.65;5.07;;;;;;;;;;5050077;28;20024;-73
2022/06/02 04:56:59;;;;;;;13.82;5.60;;;;;;;;;;5050099;28;20096;-73
2022/06/02 04:59:33;;;;;;;16.02;5.80;;;;;;;;;;5049650;28;20017;-72
2022/06/02 05:02:28;;;;;;;16.80;4.93;;;;;;;;;;5049889;28;20393;-74
2022/06/02 05:05:26;;;;;;;13.80;4.90;;;;;;;;;;5033518;28;20041;-68
2022/06/02 05:08:19;;;;;;;17.13;5.50;;;;;;;;;;5049600;28;20104;-71
2022/06/02 05:11:22;;;;;;;11.98;4.97;;;;;;;;;;5049671;28;20029;-69
2022/06/02 05:14:43;;;;;;;13.40;5.60;;;;;;;;;;5050081;28;20029;-69
2022/06/02 05:17:42;;;;;;;12.45;5.13;;;;;;;;;;5026635;28;20104;-68
2022/06/02 05:20:34;;;;;;;13.82;5.18;;;;;;;;;;5049551;28;20028;-72
2022/06/02 05:23:10;;;;;;;13.30;5.32;;;;;;;;;;5041921;28;20049;-72
2022/06/02 05:25:51;;;;;;;15.68;5.40;;;;;;;;;;5048488;28;20447;-72
2022/06/02 05:28:26;;;;;;;16.45;5.45;;;;;;;;;;5049559;28;20443;-72
2022/06/02 05:31:13;;;;;;;9.10;4.57;;;;;;;;;;5052143;28;20036;-71
2022/06/02 05:33:41;;;;;;;17.58;5.32;;;;;;;;;;5053832;28;20071;-74
2022/06/02 05:36:21;;;;;;;13.82;5.10;;;;;;;;;;5053602;28;20025;-73
2022/06/02 05:39:19;;;;;;;12.83;5.07;;;;;;;;;;5053613;28;20469;-73
2022/06/02 05:42:03;;;;;;;11.23;4.75;;;;;;;;;;5053768;28;20818;-72
2022/06/02 05:45:03;;;;;;;11.90;5.10;;;;;;;;;;5053867;28;20028;-74
2022/06/02 05:47:38;;;;;;;13.35;5.50;;;;;;;;;;5053148;28;20021;-74
2022/06/02 05:50:10;;;;;;;14.80;5.38;;;;;;;;;;5053405;28;20025;-73
2022/06/02 05:53:17;;;;;;;12.70;5.32;;;;;;;;;;5052939;28;20021;-73
2022/06/02 05:56:08;;;;;;;13.43;5.07;;;;;;;;;;5053192;28;20024;-73
2022/06/02 05:58:57;;;;;;;16.75;5.18;;;;;;;;;;5048266;28;20041;-72
2022/06/02 06:01:42;;;;;;;15.45;5.05;;;;;;;;;;5033162;28;20114;-72
2022/06/02 06:04:27;;;;;;;12.10;4.90;;;;;;;;;;5053222;28;20522;-73
2022/06/02 06:06:55;;;;;;;8.38;4.63;;;;;;;;;;5053135;28;20029;-73
2022/06/02 06:09:43;;;;;;;17.45;4.97;;;;;;;;;;5053080;28;20037;-74
2022/06/02 06:12:33;;;;;;;15.55;4.80;;;;;;;;;;5052916;28;20104;-73
2022/06/02 06:15:17;;;;;;;16.50;5.20;;;;;;;;;;5053193;28;20025;-73
2022/06/02 06:18:19;;;;;;;10.88;4.63;;;;;;;;;;5052877;28;20488;-74
2022/06/02 06:21:19;;;;;;;12.07;4.70;;;;;;;;;;5052585;28;20025;-72
2022/06/02 06:24:15;;;;;;;11.95;4.40;;;;;;;;;;5052688;28;20045;-74
2022/06/02 06:26:50;;;;;;;11.55;4.32;;;;;;;;;;5052831;28;20025;-72
2022/06/02 06:29:54;;;;;;;10.98;4.63;;;;;;;;;;5052509;28;20116;-73
2022/06/02 06:32:38;;;;;;;12.52;4.47;;;;;;;;;;5052440;28;20506;-73
2022/06/02 06:35:35;;;;;;;12.25;4.53;;;;;;;;;;5052652;28;20017;-73
2022/06/02 06:38:09;;;;;;;11.05;4.32;;;;;;;;;;5044985;28;20052;-72
2022/06/02 06:41:05;;;;;;;13.32;4.70;;;;;;;;;;5052201;28;20048;-73
2022/06/02 06:43:56;;;;;;;11.95;4.30;;;;;;;;;;5052335;28;20029;-74
2022/06/02 06:46:46;;;;;;;11.93;4.70;;;;;;;;;;5047383;28;20065;-73
2022/06/02 06:49:21;;;;;;;14.02;4.70;;;;;;;;;;5052221;28;20120;-74
2022/06/02 06:52:08;;;;;;;15.27;4.50;;;;;;;;;;5051949;28;20094;-73
2022/06/02 06:54:52;;;;;;;12.25;4.50;;;;;;;;;;5052379;28;20029;-74
2022/06/02 06:57:31;;;;;;;12.45;4.88;;;;;;;;;;5052207;28;20237;-72
2022/06/02 07:00:10;;;;;;;11.68;4.60;;;;;;;;;;5052190;28;20033;-74
2022/06/02 07:02:54;;;;;;;11.43;4.25;;;;;;;;;;5052468;28;20079;-73
2022/06/02 07:05:31;;;;;;;10.00;4.53;;;;;;;;;;5052161;28;20029;-73
2022/06/02 07:08:03;;;;;;;11.25;4.28;;;;;;;;;;5051867;28;20433;-74
2022/06/02 07:10:31;;;;;;;10.85;4.20;;;;;;;;;;5051891;28;20079;-73
2022/06/02 07:13:34;;;;;;;11.73;4.60;;;;;;;;;;5051911;28;20039;-73
2022/06/02 07:16:31;;;;;;;15.05;5.05;;;;;;;;;;5052268;28;20021;-74
2022/06/02 07:19:03;;;;;;;11.18;4.82;;;;;;;;;;5051962;28;20266;-73
2022/06/02 07:21:47;;;;;;;10.70;5.20;;;;;;;;;;5051234;28;20100;-73
2022/06/02 07:24:34;;;;;;;12.57;5.28;;;;;;;;;;5051684;28;20031;-72
2022/06/02 07:27:20;;;;;;;14.55;5.55;;;;;;;;;;5051777;28;20025;-73
2022/06/02 07:30:01;;;;;;;14.50;5.55;;;;;;;;;;5052508;28;20041;-73
2022/06/02 07:33:02;;;;;;;14.65;5.30;;;;;;;;;;5053750;28;20032;-73
2022/06/02 07:35:47;;;;;;;11.35;5.35;;;;;;;;;;5054593;28;20573;-71
2022/06/02 07:38:48;;;;;;;16.00;5.32;;;;;;;;;;5058224;28;20033;-70
2022/06/02 07:41:38;;;;;;;14.45;5.30;;;;;;;;;;5035239;28;20037;-73
2022/06/02 07:44:10;;;;;;;16.75;5.18;;;;;;;;;;5056426;28;20103;-72
2022/06/02 07:46:41;;;;;;;13.20;5.43;;;;;;;;;;5053683;28;20549;-73
2022/06/02 07:49:41;;;;;;;14.00;5.70;;;;;;;;;;5052593;28;20477;-72
2022/06/02 07:52:17;;;;;;;11.52;5.22;;;;;;;;;;5051762;28;20041;-73
2022/06/02 07:55:10;;;;;;;13.38;5.20;;;;;;;;;;5056039;28;20021;-72
2022/06/02 07:58:09;;;;;;;12.45;5.30;;;;;;;;;;5056806;28;20017;-73
2022/06/02 08:01:13;;;;;;;11.18;5.25;;;;;;;;;;5056671;28;20558;-73
2022/06/02 08:03:45;;;;;;;13.90;5.25;;;;;;;;;;5033949;28;20167;-74
2022/06/02 08:06:35;;;;;;;11.18;5.10;;;;;;;;;;5056774;28;20016;-76
2022/06/02 08:09:01;;;;;;;13.75;5.32;;;;;;;;;;5056420;28;20041;-73
2022/06/02 08:11:43;;;;;;;15.98;5.40;;;;;;;;;;5055092;28;20035;-70
2022/06/02 08:14:24;;;;;;;14.10;5.05;;;;;;;;;;5051382;28;20028;-72
2022/06/02 08:16:58;;;;;;;11.75;5.45;;;;;;;;;;5050800;28;20095;-66
2022/06/02 08:19:29;;;;;;;15.05;5.57;;;;;;;;;;5051002;28;20032;-71
2022/06/02 08:21:59;;;;;;;15.18;5.28;;;;;;;;;;5050276;28;20044;-72
2022/06/02 08:24:49;;;;;;;14.55;5.20;;;;;;;;;;5049311;28;20029;-70
2022/06/02 08:27:17;;;;;;;12.00;4.75;;;;;;;;;;5050645;28;20021;-71
2022/06/02 08:30:05;;;;;;;12.77;4.90;;;;;;;;;;5050517;28;20049;-73
2022/06/02 08:32:49;;;;;;;17.48;5.40;;;;;;;;;;5050367;28;20035;-72
2022/06/02 08:35:28;;;;;;;16.33;5.38;;;;;;;;;;5050376;28;20064;-74
2022/06/02 08:38:00;;;;;;;12.05;4.90;;;;;;;;;;5050460;28;20033;-72
2022/06/02 08:41:00;;;;;;;18.08;5.20;;;;;;;;;;5050331;28;20077;-72
2022/06/02 08:44:03;;;;;;;16.52;5.47;;;;;;;;;;5048224;28;20037;-75
2022/06/02 08:46:50;;;;;;;15.50;5.43;;;;;;;;;;5050189;28;20497;-71
2022/06/02 08:49:53;;;;;;;15.95;5.40;;;;;;;;;;5050075;28;20408;-73
2022/06/02 08:52:47;;;;;;;15.00;5.22;;;;;;;;;;5049703;28;20037;-72
2022/06/02 08:55:19;;;;;;;13.05;5.28;;;;;;;;;;5049890;28;20052;-73
2022/06/02 08:57:56;;;;;;;13.43;5.30;;;;;;;;;;5050139;28;20464;-72
2022/06/02 09:00:40;;;;;;;16.92;6.13;;;;;;;;;;5050149;28;20037;-72
2022/06/02 09:03:32;;;;;;;14.18;5.72;;;;;;;;;;5049983;28;20063;-71
2022/06/02 09:06:04;;;;;;;11.60;5.15;;;;;;;;;;5049129;28;20431;-75
2022/06/02 09:08:46;;;;;;;13.20;5.47;;;;;;;;;;5049657;28;20021;-73
2022/06/02 09:11:21;;;;;;;15.25;5.40;;;;;;;;;;5049972;28;20029;-73
2022/06/02 09:14:05;;;;;;;18.42;6.15;;;;;;;;;;5049955;28;20327;-72
2022/06/02 09:16:47;;;;;;;21.33;5.85;;;;;;;;;;5049741;28;20053;-71
2022/06/02 09:19:25;;;;;;;17.98;5.70;;;;;;;;;;5049928;28;20049;-72
2022/06/02 09:22:02;;;;;;;14.50;5.57;;;;;;;;;;5049437;28;20045;-73
2022/06/02 09:24:42;;;;;;;16.92;6.10;;;;;;;;;;5049764;28;20121;-70
2022/06/02 09:27:37;;;;;;;13.13;5.13;;;;;;;;;;5049554;28;20049;-72
2022/06/02 09:30:12;;;;;;;12.85;6.03;;;;;;;;;;5049657;28;20088;-71
2022/06/02 09:36:42;;;;;;;11.23;5.07;;;;;;;;;;5050216;28;20094;-71
2022/06/02 09:39:39;;;;;;;11.75;4.95;;;;;;;;;;5049553;28;20032;-74
2022/06/02 09:42:43;;;;;;;14.50;5.32;;;;;;;;;;5049360;28;20053;-75
2022/06/02 09:45:30;;;;;;;17.42;5.82;;;;;;;;;;5049264;28;20029;-73
2022/06/02 09:48:13;;;;;;;10.75;4.97;;;;;;;;;;5049374;28;20421;-73
2022/06/02 09:50:56;;;;;;;12.18;4.85;;;;;;;;;;5049616;28;20033;-72
2022/06/02 09:54:01;;;;;;;10.30;5.40;;;;;;;;;;5049373;28;20033;-72
2022/06/02 09:57:59;;;;;;;12.65;5.60;;;;;;;;;;5043593;28;20048;-72
2022/06/02 10:00:13;;;;;;;9.27;5.32;;;;;;;;;;5048642;28;20055;-73
2022/06/02 10:03:13;;;;;;;8.63;4.90;;;;;;;;;;5049141;28;20021;-74
2022/06/02 10:06:02;;;;;;;11.38;5.20;;;;;;;;;;5049137;28;20028;-73
2022/06/02 10:08:46;;;;;;;16.27;5.50;;;;;;;;;;5049239;28;20413;-71
2022/06/02 10:11:40;;;;;;;14.15;5.20;;;;;;;;;;5049257;28;20056;-73
2022/06/02 10:14:37;;;;;;;10.18;5.30;;;;;;;;;;5049123;28;20035;-72
2022/06/02 10:17:40;;;;;;;11.55;5.00;;;;;;;;;;5051825;28;20036;-73
2022/06/02 10:20:21;;;;;;;12.15;5.55;;;;;;;;;;5053063;28;20167;-74
2022/06/02 10:22:55;;;;;;;;;;;;;;;;;;5052893;28;20109;-68
2022/06/02 10:25:47;;;;;;;10.77;4.43;;;;;;;;;;5051553;28;20372;-74
2022/06/02 10:28:34;;;;;;;11.10;5.05;;;;;;;;;;5052732;28;20086;-74
2022/06/02 10:31:20;;;;;;;9.60;4.95;;;;;;;;;;5052689;28;20485;-74
2022/06/02 10:34:23;;;;;;;7.75;4.85;;;;;;;;;;5052771;28;20057;-74
2022/06/02 10:37:11;;;;;;;9.60;4.90;;;;;;;;;;5052479;28;20028;-73
2022/06/02 10:39:54;;;;;;;7.38;4.57;;;;;;;;;;5032783;28;20615;-75
2022/06/02 10:42:49;;;;;;;9.80;4.57;;;;;;;;;;5052396;28;20025;-75
2022/06/02 10:45:47;;;;;;;9.40;4.47;;;;;;;;;;5052393;28;20075;-73
2022/06/02 10:48:32;;;;;;;11.18;4.70;;;;;;;;;;5052662;28;20025;-73
2022/06/02 10:51:19;;;;;;;12.48;5.00;;;;;;;;;;5052110;28;20029;-72
2022/06/02 10:54:11;;;;;;;13.60;5.07;;;;;;;;;;5052021;28;20071;-71
2022/06/02 10:57:04;;;;;;;12.20;5.32;;;;;;;;;;5052464;28;20514;-71
2022/06/02 10:59:44;;;;;;;9.00;5.18;;;;;;;;;;5052751;28;20037;-75
2022/06/02 11:02:37;;;;;;;13.38;5.65;;;;;;;;;;5051948;28;20036;-74
2022/06/02 11:05:40;;;;;;;11.02;5.03;;;;;;;;;;5052434;28;20435;-71
2022/06/02 11:08:34;;;;;;;11.40;5.43;;;;;;;;;;5052158;28;20480;-74
2022/06/02 11:11:37;;;;;;;11.63;5.22;;;;;;;;;;5051935;28;20056;-73
2022/06/02 11:14:20;;;;;;;12.57;5.20;;;;;;;;;;5051914;28;20492;-72
2022/06/02 11:16:55;;;;;;;13.38;5.60;;;;;;;;;;5052516;28;20033;-71
2022/06/02 11:19:48;;;;;;;10.95;5.32;;;;;;;;;;5051770;28;20029;-71
2022/06/02 11:22:16;;;;;;;13.43;5.30;;;;;;;;;;5051251;28;20053;-74
2022/06/02 11:25:03;;;;;;;12.77;5.40;;;;;;;;;;5051650;28;20388;-72
2022/06/02 11:27:40;;;;;;;11.48;5.53;;;;;;;;;;5050683;28;20029;-72
2022/06/02 11:30:21;;;;;;;9.32;5.15;;;;;;;;;;5051562;28;20497;-73
2022/06/02 11:32:57;;;;;;;10.68;5.10;;;;;;;;;;5051483;28;20087;-71
2022/06/02 11:35:55;;;;;;;8.68;4.90;;;;;;;;;;5051473;28;20147;-71
2022/06/02 11:39:05;;;;;;;9.88;5.10;;;;;;;;;;5051332;28;20056;-72
2022/06/02 11:41:52;;;;;;;11.68;5.10;;;;;;;;;;5051378;28;20095;-70
2022/06/02 11:44:40;;;;;;;12.68;4.88;;;;;;;;;;5051264;28;20103;-74
2022/06/02 11:47:21;;;;;;;9.40;5.20;;;;;;;;;;5045540;28;20459;-73
2022/06/02 11:50:05;;;;;;;;;;;;;;;;;;5051706;28;20564;-73
2022/06/02 11:52:46;;;;;;;12.40;5.07;;;;;;;;;;5051103;28;20277;-71
2022/06/02 11:55:22;;;;;;;12.02;5.05;;;;;;;;;;5051305;28;20033;-72
2022/06/02 11:57:53;;;;;;;8.82;4.55;;;;;;;;;;5051308;28;20009;-73
2022/06/02 12:00:35;;;;;;;8.20;4.97;;;;;;;;;;5051289;28;20392;-73
2022/06/02 12:03:10;;;;;;;10.73;5.13;;;;;;;;;;5051193;28;20119;-73
2022/06/02 12:06:14;;;;;;;10.27;4.80;;;;;;;;;;5050984;28;20492;-73
2022/06/02 12:08:59;;;;;;;8.45;4.97;;;;;;;;;;5049454;28;20029;-73
2022/06/02 12:11:42;;;;;;;10.75;5.25;;;;;;;;;;5051063;28;20044;-73
2022/06/02 12:14:16;;;;;;;9.27;5.07;;;;;;;;;;5050794;28;20469;-72
2022/06/02 12:17:05;;;;;;;11.13;5.05;;;;;;;;;;5050968;28;20029;-73
2022/06/02 12:19:48;;;;;;;11.95;5.40;;;;;;;;;;5050584;28;20103;-71
2022/06/02 12:22:28;;;;;;;8.50;4.57;;;;;;;;;;5049867;28;20390;-73
2022/06/02 12:25:18;;;;;;;9.02;5.00;;;;;;;;;;5050680;28;20079;-72
2022/06/02 12:28:05;;;;;;;10.63;5.47;;;;;;;;;;5050559;28;20033;-74
2022/06/02 12:31:18;;;;;;;11.10;5.35;;;;;;;;;;5050258;28;20033;-70
2022/06/02 12:34:31;;;;;;;8.98;5.30;;;;;;;;;;5018440;28;20049;-72
2022/06/02 12:37:32;;;;;;;9.88;5.60;;;;;;;;;;5007718;28;20521;-74
2022/06/02 12:40:24;;;;;;;10.70;5.45;;;;;;;;;;5049922;28;20029;-73
2022/06/02 12:43:27;;;;;;;10.93;4.90;;;;;;;;;;5050001;28;20021;-72
2022/06/02 12:46:04;;;;;;;11.73;5.22;;;;;;;;;;5050111;28;20044;-71
2022/06/02 12:49:00;;;;;;;13.27;5.18;;;;;;;;;;5050339;28;20338;-73
2022/06/02 12:51:44;;;;;;;9.40;5.22;;;;;;;;;;5049933;28;20373;-73
2022/06/02 12:54:24;;;;;;;12.02;5.22;;;;;;;;;;5049657;28;20077;-73
2022/06/02 12:56:52;;;;;;;;;;;;;;;;;;5050333;28;20492;-71
2022/06/02 12:59:36;;;;;;;9.88;5.00;;;;;;;;;;5050092;28;20142;-71
2022/06/02 13:02:25;;;;;;;11.25;5.45;;;;;;;;;;5049937;28;20103;-74
2022/06/02 13:05:09;;;;;;;11.93;5.22;;;;;;;;;;5049904;28;20444;-73
2022/06/02 13:08:05;;;;;;;18.08;5.85;;;;;;;;;;5049698;28;20032;-72
2022/06/02 13:10:30;;;;;;;9.55;5.50;;;;;;;;;;5049468;28;20032;-74
2022/06/02 13:13:28;;;;;;;8.52;5.43;;;;;;;;;;5049397;28;20499;-71
2022/06/02 13:16:11;;;;;;;12.30;5.53;;;;;;;;;;5049922;28;20094;-73
2022/06/02 13:18:39;;;;;;;14.63;5.68;;;;;;;;;;5049735;28;20428;-72
2022/06/02 13:21:45;;;;;;;12.68;5.30;;;;;;;;;;5049473;28;20317;-72
2022/06/02 13:24:41;;;;;;;14.38;5.57;;;;;;;;;;5049515;28;20063;-72
2022/06/02 13:27:22;;;;;;;9.52;5.32;;;;;;;;;;5049561;28;20519;-72
2022/06/02 13:30:24;;;;;;;11.30;5.32;;;;;;;;;;5049251;28;20110;-73
2022/06/02 13:32:53;;;;;;;12.65;5.13;;;;;;;;;;5049295;28;20040;-72
2022/06/02 13:35:30;;;;;;;13.68;4.97;;;;;;;;;;5049616;28;20032;-72
2022/06/02 13:38:19;;;;;;;9.55;4.72;;;;;;;;;;5049483;28;20079;-74
2022/06/02 13:41:22;;;;;;;9.52;4.95;;;;;;;;;;5049851;28;20029;-73
2022/06/02 13:44:35;;;;;;;10.98;4.88;;;;;;;;;;5049370;28;20087;-72
2022/06/02 13:47:36;;;;;;;7.93;5.07;;;;;;;;;;5049584;28;20029;-73
2022/06/02 13:50:19;;;;;;;12.15;5.07;;;;;;;;;;5046875;28;20103;-73
2022/06/02 13:53:09;;;;;;;10.32;5.07;;;;;;;;;;5053069;28;20025;-70
2022/06/02 13:58:31;;;;;;;9.43;4.90;;;;;;;;;;5053512;28;20098;-72
2022/06/02 14:01:35;;;;;;;14.07;5.00;;;;;;;;;;5053841;28;20070;-72
2022/06/02 14:04:18;;;;;;;12.38;4.63;;;;;;;;;;5053001;28;20104;-72
2022/06/02 14:06:52;;;;;;;11.20;4.68;;;;;;;;;;5051495;28;20099;-72
2022/06/02 14:09:53;;;;;;;8.05;4.75;;;;;;;;;;5053503;28;20388;-72
2022/06/02 14:12:34;;;;;;;12.43;4.65;;;;;;;;;;5053458;28;20353;-73
2022/06/02 14:15:08;;;;;;;19.40;5.32;;;;;;;;;;5053000;28;20024;-72
2022/06/02 14:17:49;;;;;;;11.48;4.60;;;;;;;;;;5053076;28;20039;-74
2022/06/02 14:20:21;;;;;;;10.48;4.50;;;;;;;;;;5052778;28;20079;-73
2022/06/02 14:23:11;;;;;;;10.32;4.00;;;;;;;;;;5052270;28;20056;-72
2022/06/02 14:26:11;;;;;;;10.77;4.88;;;;;;;;;;5052761;28;20052;-73
2022/06/02 14:29:24;;;;;;;13.20;4.65;;;;;;;;;;5017210;28;20052;-73
2022/06/02 14:32:04;;;;;;;12.88;4.28;;;;;;;;;;5020968;28;20072;-72
2022/06/02 14:34:48;;;;;;;13.05;4.80;;;;;;;;;;5052542;28;20449;-73
2022/06/02 14:37:17;;;;;;;10.40;4.50;;;;;;;;;;5052521;28;20104;-72
2022/06/02 14:40:00;;;;;;;11.65;4.25;;;;;;;;;;5052579;28;20025;-73
2022/06/02 14:43:04;;;;;;;11.20;4.75;;;;;;;;;;5052928;28;20033;-72
2022/06/02 14:46:07;;;;;;;8.70;4.35;;;;;;;;;;5052540;28;20181;-72
2022/06/02 14:48:54;;;;;;;10.82;4.70;;;;;;;;;;5052494;28;20120;-72
2022/06/02 14:51:29;;;;;;;9.52;4.50;;;;;;;;;;5052250;28;20032;-72
2022/06/02 14:54:06;;;;;;;13.85;4.50;;;;;;;;;;5052541;28;20028;-72
2022/06/02 14:56:58;;;;;;;14.48;4.30;;;;;;;;;;5052190;28;20396;-71
2022/06/02 14:59:40;;;;;;;10.65;4.18;;;;;;;;;;5052030;28;20048;-73
2022/06/02 15:02:24;;;;;;;10.00;4.38;;;;;;;;;;5051231;28;20023;-72
2022/06/02 15:05:01;;;;;;;11.98;4.30;;;;;;;;;;5051930;28;20033;-71
2022/06/02 15:07:45;;;;;;;9.63;3.88;;;;;;;;;;5051866;28;20026;-71
2022/06/02 15:10:29;;;;;;;13.30;4.20;;;;;;;;;;5052007;28;20025;-71
2022/06/02 15:13:55;;;;;;;8.90;4.50;;;;;;;;;;5052284;28;20216;-72
2022/06/02 15:16:32;;;;;;;8.10;3.80;;;;;;;;;;5009380;28;20080;-73
2022/06/02 15:19:40;;;;;;;14.23;4.10;;;;;;;;;;5009458;28;20044;-71
2022/06/02 15:22:52;;;;;;;10.25;3.72;;;;;;;;;;5015010;28;20102;-72
2022/06/02 15:25:31;;;;;;;15.05;4.10;;;;;;;;;;5022526;28;20059;-71
2022/06/02 15:28:41;;;;;;;12.52;4.10;;;;;;;;;;5051880;28;20025;-72
2022/06/02 15:31:17;;;;;;;11.68;3.80;;;;;;;;;;5051404;28;20463;-68
2022/06/02 15:34:19;;;;;;;9.50;3.72;;;;;;;;;;5051309;28;20035;-67
2022/06/02 15:37:03;;;;;;;12.80;4.10;;;;;;;;;;5051408;28;20025;-67
2022/06/02 15:40:02;;;;;;;10.85;4.10;;;;;;;;;;5051592;28;20059;-72
2022/06/02 15:43:05;;;;;;;11.57;3.85;;;;;;;;;;5051572;28;20098;-72
2022/06/02 15:45:52;;;;;;;11.15;3.38;;;;;;;;;;5051101;28;20116;-73
2022/06/02 15:48:41;;;;;;;10.43;3.65;;;;;;;;;;5051398;28;20021;-73
2022/06/02 15:51:38;;;;;;;9.70;3.60;;;;;;;;;;5051141;28;20024;-74
2022/06/02 15:54:27;;;;;;;11.60;4.28;;;;;;;;;;5051324;28;20025;-73
2022/06/02 15:57:36;;;;;;;10.05;3.63;;;;;;;;;;5050968;28;20021;-74
2022/06/02 16:00:26;;;;;;;9.45;3.60;;;;;;;;;;5051066;28;20108;-72
2022/06/02 16:03:39;;;;;;;10.10;3.95;;;;;;;;;;5051139;28;20032;-73
2022/06/02 16:06:23;;;;;;;8.73;3.50;;;;;;;;;;5050548;28;20037;-72
2022/06/02 16:12:16;;;;;;;7.80;3.60;;;;;;;;;;5050941;28;20031;-71
2022/06/02 16:14:59;;;;;;;6.38;3.72;;;;;;;;;;5050533;28;20032;-71
2022/06/02 16:18:02;;;;;;;10.13;4.15;;;;;;;;;;5049683;28;20508;-74
2022/06/02 16:20:33;;;;;;;9.60;3.80;;;;;;;;;;5050661;28;20028;-71
2022/06/02 16:23:08;;;;;;;10.23;3.90;;;;;;;;;;5050780;28;20128;-71
2022/06/02 16:25:52;;;;;;;6.50;3.47;;;;;;;;;;5050429;28;20043;-71
2022/06/02 16:28:23;;;;;;;8.75;4.05;;;;;;;;;;5050344;28;20029;-70
2022/06/02 16:30:57;;;;;;;11.55;3.78;;;;;;;;;;5050571;28;20021;-72
2022/06/02 16:33:28;;;;;;;8.10;3.78;;;;;;;;;;5050317;28;20033;-75
2022/06/02 16:36:15;;;;;;;10.77;4.25;;;;;;;;;;5050618;28;20035;-70
2022/06/02 16:39:11;;;;;;;8.93;4.05;;;;;;;;;;5050436;28;20025;-72